Weather History for KCFE - April, 2014

Change the Weather History Date:

Wednesday, April 30, 2014

  Actual Average (KSTC) Record (KSTC)
Temperature  
Mean Temperature 40 °F 51 °F  
Max Temperature 45 °F 64 °F 91 °F (1934)
Min Temperature 36 °F 39 °F 21 °F (1966)
Degree Days  
Heating Degree Days 24 14  
Month to date heating degree days 618  
Since 1 July heating degree days 8167  
Cooling Degree Days 0 0  
Month to date cooling degree days 2  
Year to date cooling degree days 2  
Moisture  
Dew Point 36 °F    
Average Humidity 86    
Maximum Humidity 91    
Minimum Humidity 72    
Precipitation  
Precipitation 0.04 in 0.10 in 1.43 in (1954)
Month to date precipitation 2.57  
Year to date precipitation 5.36  
Snow  
Snow 0.00 in 0.00 in 2.00 in (1909)
Month to date snowfall 3.0  
Since 1 July snowfall 45.7  
Snow Depth -    
Sea Level Pressure  
Sea Level Pressure 29.78 in    
Wind  
Wind Speed 11 mph (NNW)    
Max Wind Speed 15 mph    
Max Gust Speed 21 mph    
Visibility 9 miles    
Events Rain    
T = Trace of Precipitation, MM = Missing Value Source: NWS Daily Summary

Daily Weather History Graph

Daily Weather History Graph

Search for Another Location

Airport or City:

Trip Planner

Search our weather history database for the weather conditions in past years. The results will help you decide how hot, cold, wet, or windy it might be!

Date:

Astronomy

Apr. 30, 2014 Rise Set
Actual Time 6:05 AM CDT 8:20 PM CDT
Civil Twilight 5:33 AM CDT 8:52 PM CDT
Nautical Twilight 4:53 AM CDT 9:32 PM CDT
Astronomical Twilight 4:08 AM CDT 10:17 PM CDT
Moon 7:06 AM CDT (4/30) 10:02 PM CDT (4/30)
Length of Visible Light 15h 19m
Length of Day
14h 14m
New Moon, 2% of the Moon is Illuminated
Apr 30
New Moon
May 6
First Quarter
May 14
Full
May 21
Last Quarter
May 28
New

Hourly Weather History & Observations

Time (CDT) Temp. Windchill Dew Point Humidity Pressure Visibility Wind Dir Wind Speed Gust Speed Precip Events Conditions
12:15 AM 37.4 °F 30.3 °F 34.2 °F 88% 29.78 in 10.0 mi NNW 10.4 mph 18.4 mph N/A   Light Drizzle
12:36 AM 37.4 °F 29.3 °F 33.8 °F 87% 29.78 in 10.0 mi NNW 12.7 mph 20.7 mph N/A   Overcast
12:55 AM 37.4 °F 29.8 °F 33.8 °F 87% 29.78 in 10.0 mi NNW 11.5 mph 19.6 mph N/A   Overcast
1:15 AM 37.4 °F 29.8 °F 33.8 °F 87% 29.78 in 10.0 mi North 11.5 mph 19.6 mph N/A   Light Drizzle
1:36 AM 37.4 °F 29.3 °F 33.8 °F 87% 29.77 in 10.0 mi North 12.7 mph 18.4 mph N/A   Light Drizzle
1:55 AM 36.7 °F 28.9 °F 33.3 °F 87% 29.77 in 10.0 mi North 11.5 mph 18.4 mph N/A   Drizzle
2:15 AM 36.5 °F 29.2 °F 33.4 °F 89% 29.77 in 10.0 mi NNW 10.4 mph 16.1 mph N/A   Drizzle
2:36 AM 36.5 °F 28.7 °F 33.4 °F 89% 29.77 in 10.0 mi NNW 11.5 mph 16.1 mph N/A   Drizzle
2:55 AM 36.5 °F 28.7 °F 33.4 °F 89% 29.77 in 10.0 mi NNW 11.5 mph 17.3 mph N/A   Drizzle
3:15 AM 36.5 °F 27.8 °F 33.6 °F 89% 29.77 in 7.0 mi NNW 13.8 mph 18.4 mph N/A   Light Drizzle
3:36 AM 36.5 °F 28.2 °F 33.6 °F 89% 29.76 in 7.0 mi NNW 12.7 mph - N/A   Drizzle
3:55 AM 36.5 °F 27.8 °F 33.8 °F 90% 29.77 in 10.0 mi NNW 13.8 mph 17.3 mph N/A   Drizzle
4:15 AM 36.5 °F 28.7 °F 33.4 °F 89% 29.77 in 10.0 mi NNW 11.5 mph 18.4 mph N/A   Overcast
4:36 AM 36.5 °F 28.2 °F 33.4 °F 89% 29.77 in 10.0 mi NNW 12.7 mph 17.3 mph N/A Rain Rain
4:55 AM 36.3 °F 28.9 °F 33.3 °F 89% 29.77 in 10.0 mi NNW 10.4 mph 19.6 mph 0.01 in Rain Light Rain
5:15 AM 36.0 °F 28.5 °F 33.3 °F 90% 29.77 in 10.0 mi NNW 10.4 mph - N/A   Drizzle
5:36 AM 36.5 °F 28.7 °F 33.8 °F 90% 29.77 in 10.0 mi NNW 11.5 mph - 0.01 in   Drizzle
6:15 AM 36.7 °F 28.9 °F 33.8 °F 89% 29.78 in 10.0 mi NNW 11.5 mph - N/A   Light Drizzle
6:36 AM 37.2 °F 30.0 °F 34.0 °F 88% 29.78 in 10.0 mi NNW 10.4 mph - N/A   Light Drizzle
6:55 AM 37.4 °F 30.8 °F 34.2 °F 88% 29.78 in 10.0 mi NNW 9.2 mph 16.1 mph N/A   Overcast
7:15 AM 37.4 °F 28.9 °F 34.3 °F 89% 29.77 in 5.0 mi NNW 13.8 mph 18.4 mph N/A   Light Drizzle
7:36 AM 37.4 °F 29.8 °F 34.7 °F 90% 29.78 in 4.0 mi NNW 11.5 mph 18.4 mph N/A   Light Drizzle
7:55 AM 37.4 °F 30.3 °F 34.9 °F 91% 29.78 in 4.0 mi NNW 10.4 mph - N/A   Light Drizzle
8:15 AM 37.6 °F 30.0 °F 35.1 °F 91% 29.78 in 3.0 mi NNW 11.5 mph 16.1 mph N/A   Light Drizzle
8:36 AM 37.8 °F 31.3 °F 35.2 °F 91% 29.78 in 4.0 mi NNW 9.2 mph - N/A   Overcast
8:55 AM 38.3 °F 31.9 °F 35.8 °F 91% 29.78 in 4.0 mi NNW 9.2 mph - N/A   Overcast
9:15 AM 38.3 °F 30.9 °F 35.8 °F 91% 29.78 in 5.0 mi NNW 11.5 mph 17.3 mph N/A   Overcast
9:36 AM 39.2 °F 32.5 °F 36.3 °F 89% 29.78 in 7.0 mi NNW 10.4 mph 17.3 mph N/A   Overcast
10:15 AM 39.2 °F 32.5 °F 35.8 °F 88% 29.78 in 10.0 mi NNW 10.4 mph 17.3 mph N/A   Overcast
10:36 AM 39.6 °F 33.0 °F 35.2 °F 85% 29.79 in 10.0 mi NNW 10.4 mph 18.4 mph N/A   Overcast
10:55 AM 40.1 °F 32.7 °F 35.4 °F 83% 29.78 in 10.0 mi NNW 12.7 mph 18.4 mph N/A   Overcast
11:15 AM 40.5 °F 33.2 °F 35.8 °F 83% 29.79 in 10.0 mi NW 12.7 mph 18.4 mph N/A   Overcast
11:36 AM 41.0 °F 34.7 °F 36.3 °F 83% 29.78 in 10.0 mi NNW 10.4 mph 17.3 mph N/A   Overcast
11:55 AM 41.5 °F 34.6 °F 35.8 °F 80% 29.78 in 10.0 mi NNW 12.7 mph 19.6 mph N/A   Overcast
12:15 PM 41.9 °F 35.9 °F 36.1 °F 80% 29.78 in 10.0 mi NNW 10.4 mph 16.1 mph N/A   Overcast
12:36 PM 42.8 °F 37.0 °F 36.5 °F 78% 29.78 in 10.0 mi NNW 10.4 mph - N/A   Overcast
12:55 PM 43.3 °F 36.8 °F 37.2 °F 79% 29.78 in 10.0 mi NNW 12.7 mph 16.1 mph N/A   Overcast
1:15 PM 43.5 °F 37.5 °F 36.7 °F 77% 29.78 in 10.0 mi NNW 11.5 mph 17.3 mph N/A   Overcast
1:36 PM 44.6 °F 38.1 °F 37.0 °F 75% 29.77 in 10.0 mi NNW 13.8 mph 20.7 mph N/A   Overcast
1:55 PM 44.6 °F 38.8 °F 36.7 °F 74% 29.77 in 10.0 mi NNW 11.5 mph - N/A   Overcast
2:15 PM 44.4 °F 39.5 °F 37.4 °F 76% 29.78 in 10.0 mi NNW 9.2 mph - N/A   Light Drizzle
2:36 PM 43.7 °F 37.7 °F 37.6 °F 79% 29.78 in 10.0 mi NNW 11.5 mph - N/A Rain Light Rain
2:55 PM 43.9 °F 36.8 °F 38.5 °F 81% 29.78 in 10.0 mi NNW 15.0 mph - N/A   Overcast
3:15 PM 44.8 °F 38.3 °F 36.9 °F 74% 29.78 in 10.0 mi North 13.8 mph 17.3 mph N/A   Overcast
3:36 PM 45.3 °F 40.6 °F 36.7 °F 72% 29.78 in 10.0 mi NNW 9.2 mph - N/A   Overcast
4:15 PM 43.3 °F 38.1 °F 38.1 °F 82% 29.79 in 10.0 mi NW 9.2 mph 16.1 mph N/A Rain Light Rain
4:36 PM 43.2 °F 37.4 °F 37.8 °F 81% 29.78 in 10.0 mi NNW 10.4 mph - N/A   Overcast
4:55 PM 42.8 °F 37.0 °F 38.3 °F 84% 29.78 in 10.0 mi NW 10.4 mph - N/A   Overcast
5:15 PM 42.8 °F 38.6 °F 38.3 °F 84% 29.79 in 10.0 mi NW 6.9 mph - N/A   Overcast
5:36 PM 41.9 °F 35.9 °F 37.9 °F 86% 29.79 in 5.0 mi NNW 10.4 mph - N/A   Drizzle
5:55 PM 41.2 °F 34.5 °F 36.5 °F 83% 29.79 in 10.0 mi North 11.5 mph 16.1 mph N/A   Drizzle
6:15 PM 41.2 °F 34.5 °F 36.5 °F 83% 29.79 in 10.0 mi NNW 11.5 mph - 0.01 in   Light Drizzle
6:36 PM 41.7 °F 36.1 °F 36.9 °F 83% 29.79 in 10.0 mi NW 9.2 mph - 0.01 in   Light Drizzle
6:55 PM 41.9 °F 36.9 °F 37.6 °F 85% 29.79 in 10.0 mi NW 8.1 mph - 0.01 in   Overcast
7:15 PM 41.5 °F 36.4 °F 37.8 °F 86% 29.79 in 5.0 mi NW 8.1 mph - N/A Rain Rain
7:36 PM 41.0 °F 34.3 °F 37.8 °F 88% 29.79 in 5.0 mi NNW 11.5 mph 17.3 mph N/A Rain Light Rain
7:55 PM 41.0 °F 35.2 °F 37.8 °F 88% 29.79 in 10.0 mi NNW 9.2 mph - N/A   Drizzle
8:15 PM 41.0 °F 36.4 °F 37.9 °F 89% 29.79 in 10.0 mi NW 6.9 mph - N/A   Overcast
8:36 PM 41.0 °F 34.7 °F 37.6 °F 88% 29.79 in 7.0 mi NNW 10.4 mph 16.1 mph N/A Rain Rain
8:55 PM 40.3 °F 34.9 °F 37.4 °F 89% 29.79 in 7.0 mi NW 8.1 mph - N/A   Light Drizzle
9:15 PM 40.3 °F 33.9 °F 37.2 °F 89% 29.79 in 7.0 mi NW 10.4 mph - N/A Rain Rain
9:36 PM 40.1 °F 35.3 °F 37.0 °F 89% 29.80 in 7.0 mi NNW 6.9 mph - 0.01 in   Drizzle
9:55 PM 39.9 °F 34.5 °F 37.4 °F 91% 29.80 in 10.0 mi NNW 8.1 mph - 0.01 in   Light Drizzle
10:15 PM 40.1 °F 34.7 °F 37.0 °F 89% 29.80 in 10.0 mi NW 8.1 mph - N/A   Overcast
10:35 PM 40.1 °F 34.7 °F 36.9 °F 88% 29.79 in 10.0 mi NW 8.1 mph - N/A   Overcast
10:55 PM 39.9 °F 35.1 °F 36.9 °F 89% 29.79 in 10.0 mi NW 6.9 mph - N/A   Overcast
11:16 PM 40.1 °F 34.7 °F 36.5 °F 87% 29.79 in 10.0 mi NW 8.1 mph - N/A   Overcast
11:36 PM 39.9 °F 33.9 °F 36.5 °F 88% 29.78 in 10.0 mi NW 9.2 mph - N/A   Overcast
11:55 PM 39.9 °F 33.9 °F 36.0 °F 86% 29.78 in 10.0 mi NW 9.2 mph - N/A   Overcast